Time,TemperatureF,DewpointF,PressureIn,WindDirection,WindDirectionDegrees,WindSpeedMPH,WindSpeedGustMPH,Humidity,HourlyPrecipIn,Conditions,Clouds,dailyrainin,SoftwareType,DateUTC
2013-04-11 00:00:00,68.0,34.6,29.87,WNW,299,0.0,3.9,29,0.00,,CLR,0.00,VWS V13.01,2013-04-11 04:00:00,
2013-04-11 00:05:00,68.2,34.7,29.87,West,273,0.0,0.0,29,0.00,,CLR,0.00,VWS V13.01,2013-04-11 04:05:00,
2013-04-11 00:10:00,68.0,37.1,29.87,North,0,0.0,0.0,32,0.00,,CLR,0.00,VWS V13.01,2013-04-11 04:10:00,
2013-04-11 00:15:00,67.1,36.3,29.87,North,0,0.0,0.0,32,0.00,,CLR,0.00,VWS V13.01,2013-04-11 04:15:00,
2013-04-11 00:20:00,66.6,35.8,29.87,North,0,0.0,0.0,32,0.00,,CLR,0.00,VWS V13.01,2013-04-11 04:20:00,
2013-04-11 00:25:00,66.2,35.5,29.87,North,0,0.0,0.0,32,0.00,,CLR,0.00,VWS V13.01,2013-04-11 04:25:00,
2013-04-11 00:30:00,65.5,37.1,29.87,North,0,0.0,0.0,35,0.00,,CLR,0.00,VWS V13.01,2013-04-11 04:30:00,
2013-04-11 00:35:00,65.1,36.8,29.87,North,0,0.0,0.0,35,0.00,,CLR,0.00,VWS V13.01,2013-04-11 04:35:00,
2013-04-11 00:40:00,64.4,36.2,29.87,North,0,0.0,0.0,35,0.00,,CLR,0.00,VWS V13.01,2013-04-11 04:40:00,
2013-04-11 00:45:00,63.9,36.4,29.87,North,0,0.0,0.0,36,0.00,,CLR,0.00,VWS V13.01,2013-04-11 04:45:00,
2013-04-11 00:50:00,63.5,36.1,29.87,North,0,0.0,0.0,36,0.00,,CLR,0.00,VWS V13.01,2013-04-11 04:50:00,
2013-04-11 00:55:00,63.0,35.6,29.84,North,0,0.0,0.0,36,0.00,,CLR,0.00,VWS V13.01,2013-04-11 04:55:00,
2013-04-11 01:00:00,62.8,35.5,29.84,North,0,0.0,0.0,36,0.00,,CLR,0.00,VWS V13.01,2013-04-11 05:00:00,
2013-04-11 01:05:00,63.0,36.3,29.84,North,0,0.0,0.0,37,0.00,,CLR,0.00,VWS V13.01,2013-04-11 05:05:00,
2013-04-11 01:10:00,63.3,35.9,29.87,North,0,0.0,0.0,36,0.00,,CLR,0.00,VWS V13.01,2013-04-11 05:10:00,
2013-04-11 01:15:00,63.1,36.5,29.87,North,0,0.0,0.0,37,0.00,,CLR,0.00,VWS V13.01,2013-04-11 05:15:00,
2013-04-11 01:20:00,63.0,36.3,29.87,North,0,0.0,0.0,37,0.00,,CLR,0.00,VWS V13.01,2013-04-11 05:20:00,
2013-04-11 01:25:00,62.4,35.8,29.87,North,0,0.0,0.0,37,0.00,,CLR,0.00,VWS V13.01,2013-04-11 05:25:00,
2013-04-11 01:30:00,62.1,35.5,29.87,North,0,0.0,0.0,37,0.00,,CLR,0.00,VWS V13.01,2013-04-11 05:30:00,
2013-04-11 01:35:00,62.1,36.2,29.87,North,8,0.0,0.0,38,0.00,,CLR,0.00,VWS V13.01,2013-04-11 05:35:00,
2013-04-11 01:40:00,62.2,37.0,29.87,North,11,0.0,0.0,39,0.00,,CLR,0.00,VWS V13.01,2013-04-11 05:40:00,
2013-04-11 01:45:00,62.1,36.8,29.87,North,0,0.0,0.0,39,0.00,,CLR,0.00,VWS V13.01,2013-04-11 05:45:00,
2013-04-11 01:50:00,61.7,36.5,29.87,North,5,3.9,3.9,39,0.00,,CLR,0.00,VWS V13.01,2013-04-11 05:50:00,
2013-04-11 01:55:00,61.2,37.3,29.87,NE,48,7.3,10.3,41,0.00,,CLR,0.00,VWS V13.01,2013-04-11 05:55:00,
2013-04-11 02:00:00,61.3,37.5,29.87,NNE,13,5.0,5.0,41,0.00,,CLR,0.00,VWS V13.01,2013-04-11 06:00:00,
2013-04-11 02:05:00,61.3,37.5,29.87,North,10,6.2,6.2,41,0.00,,CLR,0.00,VWS V13.01,2013-04-11 06:05:00,
2013-04-11 02:10:00,61.0,37.1,29.90,NNE,32,0.0,5.0,41,0.00,,CLR,0.00,VWS V13.01,2013-04-11 06:10:00,
2013-04-11 02:15:00,61.9,38.6,29.90,NE,53,2.8,3.4,42,0.00,,CLR,0.00,VWS V13.01,2013-04-11 06:15:00,
2013-04-11 02:20:00,63.3,38.6,29.90,ENE,57,2.8,2.8,40,0.00,,CLR,0.00,VWS V13.01,2013-04-11 06:20:00,
2013-04-11 02:25:00,63.5,38.1,29.87,ENE,60,3.9,3.9,39,0.00,,CLR,0.00,VWS V13.01,2013-04-11 06:25:00,
2013-04-11 02:30:00,63.9,37.8,29.87,ENE,57,0.0,3.4,38,0.00,,CLR,0.00,VWS V13.01,2013-04-11 06:30:00,
2013-04-11 02:35:00,64.0,37.3,29.87,ENE,57,0.0,0.0,37,0.00,,CLR,0.00,VWS V13.01,2013-04-11 06:35:00,
2013-04-11 02:40:00,63.9,37.1,29.87,NW,322,3.4,3.4,37,0.00,,CLR,0.00,VWS V13.01,2013-04-11 06:40:00,
2013-04-11 02:45:00,62.8,36.2,29.87,WSW,256,0.0,3.9,37,0.00,,CLR,0.00,VWS V13.01,2013-04-11 06:45:00,
2013-04-11 02:50:00,61.7,35.9,29.87,WSW,237,0.0,0.0,38,0.00,,CLR,0.00,VWS V13.01,2013-04-11 06:50:00,
2013-04-11 02:55:00,61.2,35.4,29.87,WSW,237,0.0,0.0,38,0.00,,CLR,0.00,VWS V13.01,2013-04-11 06:55:00,
2013-04-11 03:00:00,60.6,35.5,29.87,WSW,237,0.0,0.0,39,0.00,,CLR,0.00,VWS V13.01,2013-04-11 07:00:00,
2013-04-11 03:05:00,60.4,35.4,29.87,SW,236,0.0,0.0,39,0.00,,CLR,0.00,VWS V13.01,2013-04-11 07:05:00,
2013-04-11 03:10:00,61.0,35.9,29.87,NNW,337,0.0,0.0,39,0.00,,CLR,0.00,VWS V13.01,2013-04-11 07:10:00,
2013-04-11 03:15:00,60.6,35.5,29.87,NNW,337,0.0,0.0,39,0.00,,CLR,0.00,VWS V13.01,2013-04-11 07:15:00,
2013-04-11 03:20:00,59.9,35.5,29.87,NNW,337,0.0,0.0,40,0.00,,CLR,0.00,VWS V13.01,2013-04-11 07:20:00,
2013-04-11 03:25:00,59.4,35.1,29.87,NNW,337,0.0,0.0,40,0.00,,CLR,0.00,VWS V13.01,2013-04-11 07:25:00,
2013-04-11 03:30:00,59.0,34.7,29.87,WSW,252,2.8,3.9,40,0.00,,CLR,0.00,VWS V13.01,2013-04-11 07:30:00,
2013-04-11 03:35:00,58.8,35.8,29.87,WSW,252,0.0,0.0,42,0.00,,CLR,0.00,VWS V13.01,2013-04-11 07:35:00,
2013-04-11 03:40:00,58.8,35.2,29.87,WSW,252,0.0,0.0,41,0.00,,CLR,0.00,VWS V13.01,2013-04-11 07:40:00,
2013-04-11 03:45:00,58.3,34.7,29.87,West,276,0.0,0.0,41,0.00,,CLR,0.00,VWS V13.01,2013-04-11 07:45:00,
2013-04-11 03:50:00,58.1,35.2,29.87,NW,310,3.9,3.9,42,0.00,,CLR,0.00,VWS V13.01,2013-04-11 07:50:00,
2013-04-11 03:55:00,57.9,35.0,29.87,West,272,2.8,3.9,42,0.00,,CLR,0.00,VWS V13.01,2013-04-11 07:55:00,
2013-04-11 04:00:00,57.7,34.8,29.87,West,277,0.0,3.4,42,0.00,,CLR,0.00,VWS V13.01,2013-04-11 08:00:00,
2013-04-11 04:05:00,57.9,35.6,29.87,West,277,0.0,0.0,43,0.00,,CLR,0.00,VWS V13.01,2013-04-11 08:05:00,
2013-04-11 04:10:00,57.7,35.4,29.87,West,262,5.0,6.2,43,0.00,,CLR,0.00,VWS V13.01,2013-04-11 08:10:00,
2013-04-11 04:15:00,58.3,37.6,29.87,WSW,258,4.5,5.0,46,0.00,,CLR,0.00,VWS V13.01,2013-04-11 08:15:00,
2013-04-11 04:20:00,58.6,37.9,29.87,WSW,256,3.4,3.9,46,0.00,,CLR,0.00,VWS V13.01,2013-04-11 08:20:00,
2013-04-11 04:25:00,58.6,37.4,29.87,WSW,254,0.0,0.0,45,0.00,,CLR,0.00,VWS V13.01,2013-04-11 08:25:00,
2013-04-11 04:30:00,58.5,36.7,29.87,West,269,0.0,0.0,44,0.00,,CLR,0.00,VWS V13.01,2013-04-11 08:30:00,
2013-04-11 04:35:00,57.9,35.6,29.87,West,269,0.0,0.0,43,0.00,,CLR,0.00,VWS V13.01,2013-04-11 08:35:00,
2013-04-11 04:40:00,57.2,34.9,29.87,West,269,0.0,0.0,43,0.00,,CLR,0.00,VWS V13.01,2013-04-11 08:40:00,
2013-04-11 04:45:00,56.8,35.2,29.87,West,269,0.0,0.0,44,0.00,,CLR,0.00,VWS V13.01,2013-04-11 08:45:00,
2013-04-11 04:50:00,56.7,35.6,29.87,West,271,0.0,0.0,45,0.00,,CLR,0.00,VWS V13.01,2013-04-11 08:50:00,
2013-04-11 04:55:00,56.5,36.0,29.87,North,353,3.4,3.9,46,0.00,,CLR,0.00,VWS V13.01,2013-04-11 08:55:00,
2013-04-11 05:00:00,56.1,36.2,29.87,North,357,0.0,0.0,47,0.00,,CLR,0.00,VWS V13.01,2013-04-11 09:00:00,
2013-04-11 05:05:00,55.9,36.0,29.87,North,357,0.0,0.0,47,0.00,,CLR,0.00,VWS V13.01,2013-04-11 09:05:00,
2013-04-11 05:10:00,55.6,35.7,29.87,North,357,0.0,0.0,47,0.00,,CLR,0.00,VWS V13.01,2013-04-11 09:10:00,
2013-04-11 05:15:00,55.6,36.2,29.87,North,357,0.0,0.0,48,0.00,,CLR,0.00,VWS V13.01,2013-04-11 09:15:00,
2013-04-11 05:20:00,55.4,36.1,29.87,North,357,0.0,0.0,48,0.00,,CLR,0.00,VWS V13.01,2013-04-11 09:20:00,
2013-04-11 05:25:00,55.4,36.1,29.87,North,357,0.0,0.0,48,0.00,,CLR,0.00,VWS V13.01,2013-04-11 09:25:00,
2013-04-11 05:30:00,55.2,35.9,29.87,North,357,0.0,0.0,48,0.00,,CLR,0.00,VWS V13.01,2013-04-11 09:30:00,
2013-04-11 05:35:00,54.7,35.4,29.87,North,357,0.0,0.0,48,0.00,,CLR,0.00,VWS V13.01,2013-04-11 09:35:00,
2013-04-11 05:40:00,54.5,35.2,29.87,North,357,0.0,0.0,48,0.00,,CLR,0.00,VWS V13.01,2013-04-11 09:40:00,
2013-04-11 05:45:00,54.1,34.9,29.87,North,357,0.0,0.0,48,0.00,,CLR,0.00,VWS V13.01,2013-04-11 09:45:00,
2013-04-11 05:50:00,54.0,35.2,29.87,North,357,0.0,0.0,49,0.00,,CLR,0.00,VWS V13.01,2013-04-11 09:50:00,
2013-04-11 05:55:00,53.6,34.9,29.87,North,357,0.0,0.0,49,0.00,,CLR,0.00,VWS V13.01,2013-04-11 09:55:00,
2013-04-11 06:00:00,53.4,34.8,29.87,North,357,0.0,0.0,49,0.00,,CLR,0.00,VWS V13.01,2013-04-11 10:00:00,
2013-04-11 06:05:00,53.1,34.4,29.87,North,357,0.0,0.0,49,0.00,,CLR,0.00,VWS V13.01,2013-04-11 10:05:00,
2013-04-11 06:10:00,53.1,34.9,29.87,North,357,0.0,0.0,50,0.00,,CLR,0.00,VWS V13.01,2013-04-11 10:10:00,
2013-04-11 06:15:00,52.9,34.8,29.87,North,357,0.0,0.0,50,0.00,,CLR,0.00,VWS V13.01,2013-04-11 10:15:00,
2013-04-11 06:20:00,52.7,34.6,29.87,North,357,0.0,0.0,50,0.00,,CLR,0.00,VWS V13.01,2013-04-11 10:20:00,
2013-04-11 06:25:00,52.5,34.4,29.87,North,357,0.0,0.0,50,0.00,,CLR,0.00,VWS V13.01,2013-04-11 10:25:00,
2013-04-11 06:30:00,52.7,35.1,29.87,North,357,0.0,0.0,51,0.00,,CLR,0.00,VWS V13.01,2013-04-11 10:30:00,
2013-04-11 06:35:00,52.5,34.9,29.87,North,357,0.0,0.0,51,0.00,,CLR,0.00,VWS V13.01,2013-04-11 10:35:00,
2013-04-11 06:40:00,52.3,34.8,29.87,North,357,0.0,0.0,51,0.00,,CLR,0.00,VWS V13.01,2013-04-11 10:40:00,
2013-04-11 06:45:00,52.0,34.4,29.87,WNW,289,0.0,0.0,51,0.00,,CLR,0.00,VWS V13.01,2013-04-11 10:45:00,
2013-04-11 06:50:00,52.0,34.4,29.87,West,271,4.5,4.5,51,0.00,,CLR,0.00,VWS V13.01,2013-04-11 10:50:00,
2013-04-11 06:55:00,52.3,35.7,29.87,WSW,247,5.0,5.6,53,0.00,,CLR,0.00,VWS V13.01,2013-04-11 10:55:00,
2013-04-11 07:00:00,52.7,36.5,29.87,West,259,0.0,0.0,54,0.00,,CLR,0.00,VWS V13.01,2013-04-11 11:00:00,
2013-04-11 07:05:00,52.7,36.5,29.87,West,259,0.0,0.0,54,0.00,,CLR,0.00,VWS V13.01,2013-04-11 11:05:00,
2013-04-11 07:10:00,53.1,36.9,29.87,West,274,3.4,3.4,54,0.00,,CLR,0.00,VWS V13.01,2013-04-11 11:10:00,
2013-04-11 07:16:00,53.1,36.9,29.87,West,270,0.0,0.0,54,0.00,,CLR,0.00,VWS V13.01,2013-04-11 11:16:00,
2013-04-11 07:21:00,53.4,37.2,29.87,West,270,0.0,0.0,54,0.00,,CLR,0.00,VWS V13.01,2013-04-11 11:21:00,
2013-04-11 07:26:00,54.1,37.4,29.87,West,270,0.0,0.0,53,0.00,,CLR,0.00,VWS V13.01,2013-04-11 11:26:00,
2013-04-11 07:31:00,54.1,37.4,29.87,West,270,0.0,0.0,53,0.00,,CLR,0.00,VWS V13.01,2013-04-11 11:31:00,
2013-04-11 07:36:00,54.7,37.9,29.87,West,270,0.0,0.0,53,0.00,,CLR,0.00,VWS V13.01,2013-04-11 11:36:00,
2013-04-11 07:41:00,55.6,38.2,29.87,West,270,0.0,0.0,52,0.00,,CLR,0.00,VWS V13.01,2013-04-11 11:41:00,
2013-04-11 07:46:00,56.5,39.6,29.87,West,270,0.0,0.0,53,0.00,,CLR,0.00,VWS V13.01,2013-04-11 11:46:00,
2013-04-11 07:51:00,57.4,39.9,29.87,West,270,0.0,0.0,52,0.00,,CLR,0.00,VWS V13.01,2013-04-11 11:51:00,
2013-04-11 07:56:00,58.5,40.9,29.87,West,270,0.0,0.0,52,0.00,,CLR,0.00,VWS V13.01,2013-04-11 11:56:00,
2013-04-11 08:01:00,59.4,40.7,29.87,West,270,0.0,0.0,50,0.00,,CLR,0.00,VWS V13.01,2013-04-11 12:01:00,
2013-04-11 08:06:00,59.7,40.5,29.87,West,270,0.0,0.0,49,0.00,,CLR,0.00,VWS V13.01,2013-04-11 12:06:00,
2013-04-11 08:11:00,60.8,41.5,29.87,West,270,0.0,0.0,49,0.00,,CLR,0.00,VWS V13.01,2013-04-11 12:11:00,
2013-04-11 08:16:00,62.2,42.3,29.87,West,270,0.0,0.0,48,0.00,,CLR,0.00,VWS V13.01,2013-04-11 12:16:00,
2013-04-11 08:21:00,63.5,42.9,29.87,West,270,0.0,0.0,47,0.00,,CLR,0.00,VWS V13.01,2013-04-11 12:21:00,
2013-04-11 08:26:00,64.4,43.2,29.87,West,270,0.0,0.0,46,0.00,,CLR,0.00,VWS V13.01,2013-04-11 12:26:00,
2013-04-11 08:31:00,65.3,43.4,29.87,West,270,0.0,0.0,45,0.00,,CLR,0.00,VWS V13.01,2013-04-11 12:31:00,
2013-04-11 08:36:00,65.7,42.0,29.87,West,271,0.0,0.0,42,0.00,,CLR,0.00,VWS V13.01,2013-04-11 12:36:00,
2013-04-11 08:41:00,65.8,40.2,29.90,West,271,0.0,0.0,39,0.00,,CLR,0.00,VWS V13.01,2013-04-11 12:41:00,
2013-04-11 08:46:00,65.8,39.5,29.90,West,271,0.0,0.0,38,0.00,,CLR,0.00,VWS V13.01,2013-04-11 12:46:00,
2013-04-11 08:51:00,66.4,39.3,29.90,West,271,0.0,0.0,37,0.00,,CLR,0.00,VWS V13.01,2013-04-11 12:51:00,
2013-04-11 08:56:00,67.1,39.3,29.90,West,271,0.0,0.0,36,0.00,,CLR,0.00,VWS V13.01,2013-04-11 12:56:00,
2013-04-11 09:01:00,67.5,39.6,29.90,West,271,0.0,0.0,36,0.00,,CLR,0.00,VWS V13.01,2013-04-11 13:01:00,
2013-04-11 09:06:00,68.2,39.5,29.90,West,271,0.0,0.0,35,0.00,,CLR,0.00,VWS V13.01,2013-04-11 13:06:00,
2013-04-11 09:11:00,69.1,40.3,29.87,West,271,0.0,0.0,35,0.00,,CLR,0.00,VWS V13.01,2013-04-11 13:11:00,
2013-04-11 09:16:00,69.8,40.9,29.87,ENE,69,3.4,3.4,35,0.00,,CLR,0.00,VWS V13.01,2013-04-11 13:16:00,
2013-04-11 09:21:00,69.4,40.6,29.87,NE,49,0.0,3.4,35,0.00,,CLR,0.00,VWS V13.01,2013-04-11 13:21:00,
2013-04-11 09:26:00,68.9,40.2,29.87,NE,54,0.0,0.0,35,0.00,,CLR,0.00,VWS V13.01,2013-04-11 13:26:00,
2013-04-11 09:31:00,68.9,40.2,29.87,SE,136,2.8,3.9,35,0.00,,CLR,0.00,VWS V13.01,2013-04-11 13:31:00,
2013-04-11 09:36:00,68.9,40.2,29.87,ESE,123,0.0,0.0,35,0.00,,CLR,0.00,VWS V13.01,2013-04-11 13:36:00,
2013-04-11 09:41:00,69.8,40.2,29.90,ESE,106,0.0,0.0,34,0.00,,CLR,0.00,VWS V13.01,2013-04-11 13:41:00,
2013-04-11 09:45:00,70.9,41.1,29.90,ENE,77,0.0,0.0,34,0.00,,CLR,0.00,VWS V13.01,2013-04-11 13:45:00,
2013-04-11 09:50:00,71.8,41.9,29.90,SSE,153,0.0,0.0,34,0.00,,CLR,0.00,VWS V13.01,2013-04-11 13:50:00,
2013-04-11 09:56:00,72.5,42.6,29.87,ESE,107,3.9,3.9,34,0.00,,CLR,0.00,VWS V13.01,2013-04-11 13:56:00,
2013-04-11 10:01:00,73.4,42.6,29.87,East,95,0.0,3.9,33,0.00,,CLR,0.00,VWS V13.01,2013-04-11 14:01:00,
2013-04-11 10:06:00,73.8,42.9,29.87,South,172,0.0,5.0,33,0.00,,CLR,0.00,VWS V13.01,2013-04-11 14:06:00,
2013-04-11 10:11:00,74.5,43.5,29.87,SE,133,3.9,5.0,33,0.00,,CLR,0.00,VWS V13.01,2013-04-11 14:11:00,
2013-04-11 10:16:00,75.0,44.0,29.87,SSW,199,0.0,4.5,33,0.00,,CLR,0.00,VWS V13.01,2013-04-11 14:16:00,
2013-04-11 10:21:00,75.2,43.3,29.87,West,270,0.0,3.4,32,0.00,,CLR,0.00,VWS V13.01,2013-04-11 14:21:00,
2013-04-11 10:26:00,75.4,43.5,29.87,SE,143,4.5,4.5,32,0.00,,CLR,0.00,VWS V13.01,2013-04-11 14:26:00,
2013-04-11 10:31:00,75.6,43.7,29.87,South,186,3.9,6.2,32,0.00,,CLR,0.00,VWS V13.01,2013-04-11 14:31:00,
2013-04-11 10:36:00,75.4,43.5,29.87,SSE,157,3.9,6.2,32,0.00,,CLR,0.00,VWS V13.01,2013-04-11 14:36:00,
2013-04-11 10:41:00,75.2,43.3,29.87,SE,135,4.5,4.5,32,0.00,,CLR,0.00,VWS V13.01,2013-04-11 14:41:00,
2013-04-11 10:46:00,76.1,44.1,29.87,SE,136,3.9,5.0,32,0.00,,CLR,0.00,VWS V13.01,2013-04-11 14:46:00,
2013-04-11 10:51:00,76.8,44.8,29.87,SSE,165,2.8,3.4,32,0.00,,CLR,0.00,VWS V13.01,2013-04-11 14:51:00,
2013-04-11 10:56:00,77.7,45.5,29.87,ESE,123,3.4,3.9,32,0.00,,CLR,0.00,VWS V13.01,2013-04-11 14:56:00,
2013-04-11 11:01:00,78.6,46.3,29.87,SSE,149,3.4,3.9,32,0.00,,CLR,0.00,VWS V13.01,2013-04-11 15:01:00,
2013-04-11 11:06:00,79.3,47.0,29.87,West,259,5.0,6.2,32,0.00,,CLR,0.00,VWS V13.01,2013-04-11 15:06:00,
2013-04-11 11:11:00,79.5,44.5,29.87,SSE,152,3.4,5.0,29,0.00,,CLR,0.00,VWS V13.01,2013-04-11 15:11:00,
2013-04-11 11:16:00,79.9,44.8,29.87,WSW,237,4.5,7.8,29,0.00,,CLR,0.00,VWS V13.01,2013-04-11 15:16:00,
2013-04-11 11:21:00,80.1,45.0,29.87,SE,125,6.7,6.7,29,0.00,,CLR,0.00,VWS V13.01,2013-04-11 15:21:00,
2013-04-11 11:26:00,80.4,45.3,29.84,SE,139,3.4,5.0,29,0.00,,CLR,0.00,VWS V13.01,2013-04-11 15:26:00,
2013-04-11 11:31:00,80.8,45.6,29.84,SSE,164,5.0,5.0,29,0.00,,CLR,0.00,VWS V13.01,2013-04-11 15:31:00,
2013-04-11 11:36:00,81.3,46.1,29.84,SSE,166,5.0,5.0,29,0.00,,CLR,0.00,VWS V13.01,2013-04-11 15:36:00,
2013-04-11 11:41:00,81.9,46.5,29.84,South,171,3.4,6.7,29,0.00,,CLR,0.00,VWS V13.01,2013-04-11 15:41:00,
2013-04-11 11:46:00,81.9,46.5,29.84,SSE,156,4.5,7.8,29,0.00,,CLR,0.00,VWS V13.01,2013-04-11 15:46:00,
2013-04-11 11:51:00,81.9,46.5,29.84,West,259,4.5,7.8,29,0.00,,CLR,0.00,VWS V13.01,2013-04-11 15:51:00,
2013-04-11 11:56:00,82.0,46.7,29.84,SE,137,4.5,7.8,29,0.00,,CLR,0.00,VWS V13.01,2013-04-11 15:56:00,
2013-04-11 12:01:00,81.9,46.5,29.84,ESE,108,3.9,9.5,29,0.00,,CLR,0.00,VWS V13.01,2013-04-11 16:01:00,
2013-04-11 12:06:00,82.0,46.7,29.84,SE,129,10.3,10.3,29,0.00,,CLR,0.00,VWS V13.01,2013-04-11 16:06:00,
2013-04-11 12:10:00,82.2,44.0,29.84,SE,140,3.4,7.8,26,0.00,,CLR,0.00,VWS V13.01,2013-04-11 16:10:00,
2013-04-11 12:15:00,82.2,46.8,29.84,South,172,6.7,7.8,29,0.00,,CLR,0.00,VWS V13.01,2013-04-11 16:15:00,
2013-04-11 12:20:00,82.4,46.1,29.84,ESE,123,3.4,7.8,28,0.00,,CLR,0.00,VWS V13.01,2013-04-11 16:20:00,
2013-04-11 12:26:00,82.8,44.4,29.84,SSE,158,9.5,9.5,26,0.00,,CLR,0.00,VWS V13.01,2013-04-11 16:26:00,
2013-04-11 12:31:00,82.6,44.3,29.84,SE,142,6.2,6.2,26,0.00,,CLR,0.00,VWS V13.01,2013-04-11 16:31:00,
2013-04-11 12:36:00,82.4,44.1,29.84,SSE,152,6.2,10.9,26,0.00,,CLR,0.00,VWS V13.01,2013-04-11 16:36:00,
2013-04-11 12:41:00,82.6,44.3,29.81,SW,232,4.5,10.3,26,0.00,,CLR,0.00,VWS V13.01,2013-04-11 16:41:00,
2013-04-11 12:46:00,82.8,44.4,29.81,SE,144,7.3,9.5,26,0.00,,CLR,0.00,VWS V13.01,2013-04-11 16:46:00,
2013-04-11 12:51:00,82.8,44.4,29.81,SSE,156,3.9,6.2,26,0.00,,CLR,0.00,VWS V13.01,2013-04-11 16:51:00,
2013-04-11 12:56:00,83.1,44.7,29.81,SSE,167,4.5,5.0,26,0.00,,CLR,0.00,VWS V13.01,2013-04-11 16:56:00,
2013-04-11 13:01:00,83.7,45.2,29.81,ESE,117,6.7,6.7,26,0.00,,CLR,0.00,VWS V13.01,2013-04-11 17:01:00,
2013-04-11 13:06:00,83.7,45.2,29.81,SE,145,4.5,7.8,26,0.00,,CLR,0.00,VWS V13.01,2013-04-11 17:06:00,
2013-04-11 13:11:00,83.7,45.2,29.81,SSE,152,7.8,7.8,26,0.00,,CLR,0.00,VWS V13.01,2013-04-11 17:11:00,
2013-04-11 13:16:00,83.5,45.0,29.81,ESE,116,9.5,9.5,26,0.00,,CLR,0.00,VWS V13.01,2013-04-11 17:16:00,
2013-04-11 13:21:00,83.7,45.2,29.81,SSW,213,3.9,6.7,26,0.00,,CLR,0.00,VWS V13.01,2013-04-11 17:21:00,
2013-04-11 13:26:00,84.0,45.5,29.81,South,184,7.8,7.8,26,0.00,,CLR,0.00,VWS V13.01,2013-04-11 17:26:00,
2013-04-11 13:31:00,84.0,45.5,29.81,SW,232,5.0,7.3,26,0.00,,CLR,0.00,VWS V13.01,2013-04-11 17:31:00,
2013-04-11 13:36:00,83.8,45.3,29.81,SW,236,7.8,10.3,26,0.00,,CLR,0.00,VWS V13.01,2013-04-11 17:36:00,
2013-04-11 13:41:00,83.8,45.3,29.78,SSW,212,3.9,7.3,26,0.00,,CLR,0.00,VWS V13.01,2013-04-11 17:41:00,
2013-04-11 13:46:00,84.2,44.6,29.78,SSW,207,7.3,10.3,25,0.00,,CLR,0.00,VWS V13.01,2013-04-11 17:46:00,
2013-04-11 13:51:00,84.6,44.9,29.78,WSW,253,7.3,10.1,25,0.00,,CLR,0.00,VWS V13.01,2013-04-11 17:51:00,
2013-04-11 13:56:00,84.6,44.9,29.78,SW,217,5.0,5.0,25,0.00,,CLR,0.00,VWS V13.01,2013-04-11 17:56:00,
2013-04-11 14:01:00,84.7,45.1,29.78,SW,223,5.0,6.7,25,0.00,,CLR,0.00,VWS V13.01,2013-04-11 18:01:00,
2013-04-11 14:06:00,84.7,45.1,29.78,SSW,192,10.9,10.9,25,0.00,,CLR,0.00,VWS V13.01,2013-04-11 18:06:00,
2013-04-11 14:11:00,85.1,45.4,29.78,South,171,3.4,4.5,25,0.00,,CLR,0.00,VWS V13.01,2013-04-11 18:11:00,
2013-04-11 14:16:00,85.3,45.5,29.78,SE,130,6.7,7.8,25,0.00,,CLR,0.00,VWS V13.01,2013-04-11 18:16:00,
2013-04-11 14:21:00,84.7,45.1,29.78,SE,129,6.2,10.3,25,0.00,,CLR,0.00,VWS V13.01,2013-04-11 18:21:00,
2013-04-11 14:26:00,84.0,45.5,29.78,South,190,3.4,10.9,26,0.00,,CLR,0.00,VWS V13.01,2013-04-11 18:26:00,
2013-04-11 14:31:00,83.3,44.9,29.78,South,173,4.5,10.1,26,0.00,,CLR,0.00,VWS V13.01,2013-04-11 18:31:00,
2013-04-11 14:36:00,82.9,44.6,29.78,SE,145,3.9,6.2,26,0.00,,CLR,0.00,VWS V13.01,2013-04-11 18:36:00,
2013-04-11 14:41:00,83.1,44.7,29.78,SE,135,10.1,10.9,26,0.00,,CLR,0.00,VWS V13.01,2013-04-11 18:41:00,
2013-04-11 14:46:00,83.3,44.9,29.78,ESE,116,6.7,7.8,26,0.00,,CLR,0.00,VWS V13.01,2013-04-11 18:46:00,
2013-04-11 14:51:00,83.3,44.9,29.78,SSW,194,5.0,5.0,26,0.00,,CLR,0.00,VWS V13.01,2013-04-11 18:51:00,
2013-04-11 14:56:00,83.5,45.0,29.78,SE,135,5.0,6.2,26,0.00,,CLR,0.00,VWS V13.01,2013-04-11 18:56:00,
2013-04-11 15:01:00,83.3,44.9,29.78,SE,146,3.4,10.1,26,0.00,,CLR,0.00,VWS V13.01,2013-04-11 19:01:00,
2013-04-11 15:06:00,83.3,44.9,29.78,ESE,111,4.5,6.2,26,0.00,,CLR,0.00,VWS V13.01,2013-04-11 19:06:00,
2013-04-11 15:11:00,83.5,45.0,29.75,SSE,147,5.0,8.9,26,0.00,,CLR,0.00,VWS V13.01,2013-04-11 19:11:00,
2013-04-11 15:16:00,83.5,45.0,29.75,SSE,147,10.9,13.1,26,0.00,,CLR,0.00,VWS V13.01,2013-04-11 19:16:00,
2013-04-11 15:21:00,83.3,44.9,29.75,SSW,210,7.3,10.9,26,0.00,,CLR,0.00,VWS V13.01,2013-04-11 19:21:00,
2013-04-11 15:26:00,82.9,44.6,29.75,SSE,168,9.5,10.3,26,0.00,,CLR,0.00,VWS V13.01,2013-04-11 19:26:00,
2013-04-11 15:31:00,82.9,44.6,29.75,SE,144,7.3,10.1,26,0.00,,CLR,0.00,VWS V13.01,2013-04-11 19:31:00,
2013-04-11 15:36:00,82.4,44.1,29.75,South,176,5.0,10.9,26,0.00,,CLR,0.00,VWS V13.01,2013-04-11 19:36:00,
2013-04-11 15:41:00,82.4,44.1,29.75,SE,134,5.0,10.1,26,0.00,,CLR,0.00,VWS V13.01,2013-04-11 19:41:00,
2013-04-11 15:46:00,82.2,44.0,29.75,SE,132,9.5,10.9,26,0.00,,CLR,0.00,VWS V13.01,2013-04-11 19:46:00,
2013-04-11 15:51:00,82.0,43.8,29.75,ESE,121,6.2,12.0,26,0.00,,CLR,0.00,VWS V13.01,2013-04-11 19:51:00,
2013-04-11 15:57:00,81.9,43.7,29.75,SE,142,4.5,14.8,26,0.00,,CLR,0.00,VWS V13.01,2013-04-11 19:57:00,
2013-04-11 16:02:00,81.3,43.2,29.75,SE,132,3.9,8.4,26,0.00,,CLR,0.00,VWS V13.01,2013-04-11 20:02:00,
2013-04-11 16:07:00,81.1,43.0,29.72,SSE,148,3.9,7.3,26,0.00,,CLR,0.00,VWS V13.01,2013-04-11 20:07:00,
2013-04-11 16:12:00,81.1,43.0,29.72,SE,146,10.1,10.1,26,0.00,,CLR,0.00,VWS V13.01,2013-04-11 20:12:00,
2013-04-11 16:17:00,81.1,43.0,29.72,SSE,160,5.0,10.9,26,0.00,,CLR,0.00,VWS V13.01,2013-04-11 20:17:00,
2013-04-11 16:22:00,81.1,43.0,29.72,SSW,209,6.7,10.9,26,0.00,,CLR,0.00,VWS V13.01,2013-04-11 20:22:00,
2013-04-11 16:27:00,81.1,47.7,29.72,SE,130,6.7,10.1,31,0.00,,CLR,0.00,VWS V13.01,2013-04-11 20:27:00,
2013-04-11 16:32:00,81.0,47.5,29.72,SE,140,5.0,7.3,31,0.00,,CLR,0.00,VWS V13.01,2013-04-11 20:32:00,
2013-04-11 16:37:00,80.8,47.4,29.72,South,169,10.1,10.1,31,0.00,,CLR,0.00,VWS V13.01,2013-04-11 20:37:00,
2013-04-11 16:42:00,80.8,47.4,29.72,SSE,154,7.3,10.1,31,0.00,,CLR,0.00,VWS V13.01,2013-04-11 20:42:00,
2013-04-11 16:47:00,80.6,47.2,29.72,SSE,153,6.2,7.8,31,0.00,,CLR,0.00,VWS V13.01,2013-04-11 20:47:00,
2013-04-11 16:52:00,80.6,47.2,29.72,SE,142,3.4,5.0,31,0.00,,CLR,0.00,VWS V13.01,2013-04-11 20:52:00,
2013-04-11 16:57:00,80.6,47.2,29.72,SE,137,7.3,7.3,31,0.00,,CLR,0.00,VWS V13.01,2013-04-11 20:57:00,
2013-04-11 17:02:00,80.4,47.9,29.72,South,169,7.8,7.8,32,0.00,,CLR,0.00,VWS V13.01,2013-04-11 21:02:00,
2013-04-11 17:07:00,80.2,47.7,29.72,WSW,243,6.7,7.8,32,0.00,,CLR,0.00,VWS V13.01,2013-04-11 21:07:00,
2013-04-11 17:12:00,80.1,47.6,29.72,SSW,205,5.0,6.7,32,0.00,,CLR,0.00,VWS V13.01,2013-04-11 21:12:00,
2013-04-11 17:17:00,79.9,47.4,29.72,ESE,120,6.2,15.9,32,0.00,,CLR,0.00,VWS V13.01,2013-04-11 21:17:00,
2013-04-11 17:22:00,79.5,47.1,29.72,SSE,166,7.3,10.1,32,0.00,,CLR,0.00,VWS V13.01,2013-04-11 21:22:00,
2013-04-11 17:27:00,79.3,47.0,29.72,SE,135,5.0,10.3,32,0.00,,CLR,0.00,VWS V13.01,2013-04-11 21:27:00,
2013-04-11 17:32:00,79.2,46.8,29.72,West,275,7.3,7.3,32,0.00,,CLR,0.00,VWS V13.01,2013-04-11 21:32:00,
2013-04-11 17:37:00,79.3,47.0,29.72,SE,144,7.3,10.9,32,0.00,,CLR,0.00,VWS V13.01,2013-04-11 21:37:00,
2013-04-11 17:42:00,79.3,47.0,29.72,ESE,120,7.3,10.9,32,0.00,,CLR,0.00,VWS V13.01,2013-04-11 21:42:00,
2013-04-11 17:48:00,79.3,47.0,29.72,SSE,162,9.5,9.5,32,0.00,,CLR,0.00,VWS V13.01,2013-04-11 21:48:00,
2013-04-11 17:53:00,79.3,47.0,29.72,South,173,5.0,7.3,32,0.00,,CLR,0.00,VWS V13.01,2013-04-11 21:53:00,
2013-04-11 17:58:00,79.2,46.8,29.72,SSE,147,7.8,10.3,32,0.00,,CLR,0.00,VWS V13.01,2013-04-11 21:58:00,
2013-04-11 18:03:00,78.8,46.5,29.72,SW,222,6.2,9.5,32,0.00,,CLR,0.00,VWS V13.01,2013-04-11 22:03:00,
2013-04-11 18:08:00,78.6,46.3,29.72,SSW,201,7.3,10.1,32,0.00,,CLR,0.00,VWS V13.01,2013-04-11 22:08:00,
2013-04-11 18:13:00,78.6,46.3,29.72,SE,126,3.9,12.0,32,0.00,,CLR,0.00,VWS V13.01,2013-04-11 22:13:00,
2013-04-11 18:18:00,78.4,46.2,29.72,South,171,7.3,9.5,32,0.00,,CLR,0.00,VWS V13.01,2013-04-11 22:18:00,
2013-04-11 18:23:00,78.3,46.0,29.72,South,171,4.5,9.5,32,0.00,,CLR,0.00,VWS V13.01,2013-04-11 22:23:00,
2013-04-11 18:28:00,78.3,46.0,29.72,SE,144,4.5,4.5,32,0.00,,CLR,0.00,VWS V13.01,2013-04-11 22:28:00,
2013-04-11 18:33:00,77.9,45.7,29.72,SSE,150,6.2,6.2,32,0.00,,CLR,0.00,VWS V13.01,2013-04-11 22:33:00,
2013-04-11 18:38:00,77.5,45.4,29.72,SSW,209,6.7,10.1,32,0.00,,CLR,0.00,VWS V13.01,2013-04-11 22:38:00,
2013-04-11 18:43:00,77.4,45.2,29.72,South,185,6.7,7.8,32,0.00,,CLR,0.00,VWS V13.01,2013-04-11 22:43:00,
2013-04-11 18:48:00,77.0,44.9,29.72,South,191,3.9,10.1,32,0.00,,CLR,0.00,VWS V13.01,2013-04-11 22:48:00,
2013-04-11 18:53:00,76.8,44.8,29.72,South,177,3.9,7.3,32,0.00,,CLR,0.00,VWS V13.01,2013-04-11 22:53:00,
2013-04-11 18:58:00,76.5,44.4,29.72,SW,217,4.5,5.0,32,0.00,,CLR,0.00,VWS V13.01,2013-04-11 22:58:00,
2013-04-11 19:03:00,76.1,44.1,29.72,SSE,162,2.8,7.8,32,0.00,,CLR,0.00,VWS V13.01,2013-04-11 23:03:00,
2013-04-11 19:08:00,76.1,44.1,29.72,SSE,152,3.4,7.3,32,0.00,,CLR,0.00,VWS V13.01,2013-04-11 23:08:00,
2013-04-11 19:13:00,75.7,43.8,29.72,South,175,3.9,6.2,32,0.00,,CLR,0.00,VWS V13.01,2013-04-11 23:13:00,
2013-04-11 19:18:00,75.6,43.7,29.72,SW,221,13.7,13.7,32,0.00,,CLR,0.00,VWS V13.01,2013-04-11 23:18:00,
2013-04-11 19:23:00,75.4,43.5,29.72,SSE,155,6.2,9.5,32,0.00,,CLR,0.00,VWS V13.01,2013-04-11 23:23:00,
2013-04-11 19:28:00,75.2,43.3,29.72,SSE,167,7.3,7.3,32,0.00,,CLR,0.00,VWS V13.01,2013-04-11 23:28:00,
2013-04-11 19:33:00,74.8,43.8,29.72,South,172,4.5,7.8,33,0.00,,CLR,0.00,VWS V13.01,2013-04-11 23:33:00,
2013-04-11 19:38:00,74.7,43.7,29.72,South,176,7.3,7.3,33,0.00,,CLR,0.00,VWS V13.01,2013-04-11 23:38:00,
2013-04-11 19:43:00,74.5,43.5,29.72,South,185,6.2,7.3,33,0.00,,CLR,0.00,VWS V13.01,2013-04-11 23:43:00,
2013-04-11 19:48:00,74.3,43.4,29.72,SSE,162,5.0,7.8,33,0.00,,CLR,0.00,VWS V13.01,2013-04-11 23:48:00,
2013-04-11 19:54:00,74.1,43.2,29.72,SW,222,7.3,7.3,33,0.00,,CLR,0.00,VWS V13.01,2013-04-11 23:54:00,
2013-04-11 19:59:00,73.9,43.0,29.72,South,177,3.9,10.1,33,0.00,,CLR,0.00,VWS V13.01,2013-04-11 23:59:00,
2013-04-11 20:04:00,73.8,42.9,29.72,SE,126,6.7,10.1,33,0.00,,CLR,0.00,VWS V13.01,2013-04-12 00:04:00,
2013-04-11 20:09:00,73.6,42.7,29.72,WSW,241,8.9,10.9,33,0.00,,CLR,0.00,VWS V13.01,2013-04-12 00:09:00,
2013-04-11 20:14:00,73.4,42.6,29.72,SW,214,3.4,5.6,33,0.00,,CLR,0.00,VWS V13.01,2013-04-12 00:14:00,
2013-04-11 20:19:00,73.2,42.4,29.72,WSW,239,6.7,6.7,33,0.00,,CLR,0.00,VWS V13.01,2013-04-12 00:19:00,
2013-04-11 20:24:00,73.2,42.4,29.72,West,265,6.7,10.9,33,0.00,,CLR,0.00,VWS V13.01,2013-04-12 00:24:00,
2013-04-11 20:29:00,73.2,42.4,29.72,SSW,199,6.2,7.3,33,0.00,,CLR,0.00,VWS V13.01,2013-04-12 00:29:00,
2013-04-11 20:34:00,73.0,42.3,29.72,SSW,205,5.0,7.3,33,0.00,,CLR,0.00,VWS V13.01,2013-04-12 00:34:00,
2013-04-11 20:39:00,72.9,42.1,29.72,South,184,5.0,6.7,33,0.00,,CLR,0.00,VWS V13.01,2013-04-12 00:39:00,
2013-04-11 20:44:00,72.7,42.0,29.72,South,179,3.4,3.4,33,0.00,,CLR,0.00,VWS V13.01,2013-04-12 00:44:00,
2013-04-11 20:49:00,72.3,41.6,29.72,SSE,148,0.0,2.8,33,0.00,,CLR,0.00,VWS V13.01,2013-04-12 00:49:00,
2013-04-11 20:54:00,72.1,41.5,29.72,SSE,159,3.4,5.0,33,0.00,,CLR,0.00,VWS V13.01,2013-04-12 00:54:00,
2013-04-11 20:59:00,71.8,41.2,29.72,South,175,0.0,5.0,33,0.00,,CLR,0.00,VWS V13.01,2013-04-12 00:59:00,
2013-04-11 21:04:00,71.8,41.2,29.72,SSE,147,3.4,3.9,33,0.00,,CLR,0.00,VWS V13.01,2013-04-12 01:04:00,
2013-04-11 21:09:00,71.6,41.0,29.72,SSW,200,0.0,6.2,33,0.00,,CLR,0.00,VWS V13.01,2013-04-12 01:09:00,
2013-04-11 21:14:00,71.4,41.6,29.72,SSE,153,4.5,4.5,34,0.00,,CLR,0.00,VWS V13.01,2013-04-12 01:14:00,
2013-04-11 21:19:00,71.1,41.3,29.72,SSE,156,0.0,0.0,34,0.00,,CLR,0.00,VWS V13.01,2013-04-12 01:19:00,
2013-04-11 21:24:00,71.1,41.3,29.72,South,170,0.0,2.8,34,0.00,,CLR,0.00,VWS V13.01,2013-04-12 01:24:00,
2013-04-11 21:29:00,70.9,41.1,29.72,SSE,167,2.8,5.6,34,0.00,,CLR,0.00,VWS V13.01,2013-04-12 01:29:00,
2013-04-11 21:34:00,70.7,41.0,29.72,SSE,160,0.0,2.8,34,0.00,,CLR,0.00,VWS V13.01,2013-04-12 01:34:00,
2013-04-11 21:39:00,70.5,40.8,29.72,South,180,0.0,0.0,34,0.00,,CLR,0.00,VWS V13.01,2013-04-12 01:39:00,
2013-04-11 21:44:00,70.3,42.2,29.72,SSE,153,0.0,0.0,36,0.00,,CLR,0.00,VWS V13.01,2013-04-12 01:44:00,
2013-04-11 21:49:00,70.2,42.0,29.72,South,177,0.0,0.0,36,0.00,,CLR,0.00,VWS V13.01,2013-04-12 01:49:00,
2013-04-11 21:54:00,69.8,41.7,29.72,SSE,158,0.0,0.0,36,0.00,,CLR,0.00,VWS V13.01,2013-04-12 01:54:00,
2013-04-11 21:59:00,69.6,42.2,29.72,SSE,167,0.0,0.0,37,0.00,,CLR,0.00,VWS V13.01,2013-04-12 01:59:00,
2013-04-11 22:04:00,69.6,42.2,29.72,South,176,0.0,0.0,37,0.00,,CLR,0.00,VWS V13.01,2013-04-12 02:04:00,
2013-04-11 22:09:00,69.4,42.1,29.72,SSW,201,0.0,0.0,37,0.00,,CLR,0.00,VWS V13.01,2013-04-12 02:09:00,
2013-04-11 22:14:00,69.3,41.9,29.72,SSW,201,0.0,0.0,37,0.00,,CLR,0.00,VWS V13.01,2013-04-12 02:14:00,
2013-04-11 22:19:00,69.1,41.7,29.72,SW,217,0.0,0.0,37,0.00,,CLR,0.00,VWS V13.01,2013-04-12 02:19:00,
2013-04-11 22:24:00,68.9,41.6,29.72,SSW,193,0.0,0.0,37,0.00,,CLR,0.00,VWS V13.01,2013-04-12 02:24:00,
2013-04-11 22:29:00,68.9,41.6,29.72,SSE,147,0.0,2.8,37,0.00,,CLR,0.00,VWS V13.01,2013-04-12 02:29:00,
2013-04-11 22:34:00,68.9,41.6,29.72,SSW,195,0.0,0.0,37,0.00,,CLR,0.00,VWS V13.01,2013-04-12 02:34:00,
2013-04-11 22:39:00,68.9,41.6,29.72,SW,216,0.0,0.0,37,0.00,,SCT050,0.00,VWS V13.01,2013-04-12 02:39:00,
2013-04-11 22:44:00,68.7,41.4,29.72,SSW,192,0.0,0.0,37,0.00,,SCT050,0.00,VWS V13.01,2013-04-12 02:44:00,
2013-04-11 22:49:00,68.7,42.8,29.72,South,171,3.4,3.9,39,0.00,,SCT050,0.00,VWS V13.01,2013-04-12 02:49:00,
2013-04-11 22:54:00,68.5,42.6,29.72,South,176,0.0,0.0,39,0.00,,SCT050,0.00,VWS V13.01,2013-04-12 02:54:00,
2013-04-11 22:59:00,68.5,42.6,29.72,SSW,200,0.0,0.0,39,0.00,,SCT060,0.00,VWS V13.01,2013-04-12 02:59:00,
2013-04-11 23:04:00,68.4,42.5,29.72,South,177,3.9,3.9,39,0.00,,SCT060,0.00,VWS V13.01,2013-04-12 03:04:00,
2013-04-11 23:09:00,68.4,42.5,29.72,SSE,165,0.0,2.8,39,0.00,,SCT060,0.00,VWS V13.01,2013-04-12 03:09:00,
2013-04-11 23:14:00,68.4,42.5,29.72,South,180,0.0,0.0,39,0.00,,SCT060,0.00,VWS V13.01,2013-04-12 03:14:00,
2013-04-11 23:19:00,68.2,42.3,29.72,South,184,0.0,0.0,39,0.00,,CLR,0.00,VWS V13.01,2013-04-12 03:19:00,
2013-04-11 23:24:00,68.2,42.3,29.72,SSE,168,0.0,0.0,39,0.00,,CLR,0.00,VWS V13.01,2013-04-12 03:24:00,
2013-04-11 23:29:00,68.2,42.3,29.72,South,170,0.0,0.0,39,0.00,,CLR,0.00,VWS V13.01,2013-04-12 03:29:00,
2013-04-11 23:34:00,68.0,42.1,29.72,South,172,0.0,0.0,39,0.00,,CLR,0.00,VWS V13.01,2013-04-12 03:34:00,
2013-04-11 23:39:00,68.0,42.1,29.72,South,190,0.0,3.4,39,0.00,,SCT050,0.00,VWS V13.01,2013-04-12 03:39:00,
2013-04-11 23:44:00,68.0,42.1,29.72,South,179,0.0,0.0,39,0.00,,SCT050,0.00,VWS V13.01,2013-04-12 03:44:00,
2013-04-11 23:49:00,68.0,42.1,29.72,South,179,0.0,0.0,39,0.00,,SCT050,0.00,VWS V13.01,2013-04-12 03:49:00,
2013-04-11 23:54:00,68.0,42.8,29.72,SSE,162,0.0,2.8,40,0.00,,SCT050,0.00,VWS V13.01,2013-04-12 03:54:00,
2013-04-11 23:59:00,68.0,42.8,29.72,SSE,149,0.0,0.0,40,0.00,,CLR,0.00,VWS V13.01,2013-04-12 03:59:00,